Time;durP1;ratioP1;P1;durP2;ratioP2;P2;SDS_P1;SDS_P2;PMS_P1;PMS_P2;Temp;Humidity;BMP_temperature;BMP_pressure;BME280_temperature;BME280_humidity;BME280_pressure;Samples;Min_cycle;Max_cycle;Signal;HPM_P1;HPM_P2
2022/11/28 00:01:44;;;;;;;8.82;4.50;;;5.90;99.90;;;;;;4231529;28;20495;-86
2022/11/28 00:03:44;;;;;;;11.77;5.00;;;5.90;99.90;;;;;;4196656;28;20521;-86
2022/11/28 00:05:45;;;;;;;8.98;4.55;;;5.80;99.90;;;;;;4231351;28;20036;-86
2022/11/28 00:07:46;;;;;;;11.18;5.18;;;5.80;99.90;;;;;;4231295;28;20036;-86
2022/11/28 00:09:47;;;;;;;10.50;5.03;;;5.80;99.90;;;;;;4213638;28;20119;-86
2022/11/28 00:11:48;;;;;;;7.55;4.10;;;5.80;99.90;;;;;;4233093;28;20043;-86
2022/11/28 00:13:49;;;;;;;8.63;3.88;;;5.80;99.90;;;;;;4216297;28;20059;-86
2022/11/28 00:16:02;;;;;;;8.55;4.43;;;5.80;99.90;;;;;;4216395;28;20496;-86
2022/11/28 00:18:03;;;;;;;6.90;3.75;;;5.40;99.90;;;;;;4234622;28;20075;-86
2022/11/28 00:20:05;;;;;;;9.77;4.13;;;5.80;99.90;;;;;;4234653;28;20487;-86
2022/11/28 00:22:07;;;;;;;11.75;3.97;;;5.90;99.90;;;;;;4216394;28;20094;-86
2022/11/28 00:24:08;;;;;;;13.25;4.95;;;5.80;99.90;;;;;;4200220;28;20091;-86
2022/11/28 00:26:21;;;;;;;7.65;4.10;;;5.90;99.90;;;;;;4236682;28;20043;-85
2022/11/28 00:28:22;;;;;;;7.07;4.00;;;5.80;99.90;;;;;;4236687;28;20047;-86
2022/11/28 00:30:23;;;;;;;9.68;4.00;;;5.90;99.90;;;;;;4222499;28;20056;-86
2022/11/28 00:32:24;;;;;;;8.65;3.90;;;5.90;99.90;;;;;;4242807;28;20067;-86
2022/11/28 00:34:33;;;;;;;9.13;4.07;;;5.90;99.90;;;;;;4245850;28;20044;-86
2022/11/28 00:36:34;;;;;;;8.57;4.32;;;5.90;99.90;;;;;;4228165;28;20048;-85
2022/11/28 00:38:36;;;;;;;8.23;4.45;;;5.90;99.90;;;;;;4212214;28;20076;-86
2022/11/28 00:40:37;;;;;;;6.93;3.97;;;5.90;99.90;;;;;;4229650;28;20579;-86
2022/11/28 00:42:40;;;;;;;11.73;4.75;;;5.80;99.90;;;;;;4248723;28;20044;-86
2022/11/28 00:44:41;;;;;;;8.57;4.28;;;5.90;99.90;;;;;;4233238;28;20043;-86
2022/11/28 00:46:42;;;;;;;6.22;3.83;;;5.80;99.90;;;;;;4216786;28;20056;-87
2022/11/28 00:48:44;;;;;;;10.38;4.95;;;5.90;99.90;;;;;;4216229;28;20048;-87
2022/11/28 00:50:46;;;;;;;9.63;4.18;;;5.90;99.90;;;;;;4215597;28;20052;-85
2022/11/28 00:52:48;;;;;;;6.47;3.58;;;5.90;99.90;;;;;;4234200;28;20549;-85
2022/11/28 00:54:50;;;;;;;6.18;4.20;;;5.90;99.90;;;;;;4233768;28;20039;-86
2022/11/28 00:56:50;;;;;;;7.95;4.07;;;5.50;99.90;;;;;;4211239;28;20059;-86
2022/11/28 00:58:52;;;;;;;13.95;5.10;;;5.90;99.90;;;;;;4216501;28;20040;-86
2022/11/28 01:00:53;;;;;;;7.28;3.85;;;5.90;99.90;;;;;;4216340;28;20051;-86
2022/11/28 01:02:54;;;;;;;6.05;3.47;;;5.90;99.90;;;;;;4229981;28;20027;-86
2022/11/28 01:04:55;;;;;;;11.18;4.18;;;5.20;99.90;;;;;;4233745;28;20104;-86
2022/11/28 01:06:56;;;;;;;9.88;4.20;;;5.90;99.90;;;;;;4232248;28;20092;-86
2022/11/28 01:08:59;;;;;;;11.60;4.13;;;5.90;99.90;;;;;;4232283;28;20039;-86
2022/11/28 01:11:00;;;;;;;8.27;3.75;;;5.30;99.90;;;;;;4233287;28;20043;-86
2022/11/28 01:13:02;;;;;;;10.45;3.92;;;5.90;99.90;;;;;;4233169;28;20459;-86
2022/11/28 01:15:05;;;;;;;9.85;4.38;;;6.00;99.90;;;;;;4218704;28;20043;-86
2022/11/28 01:17:06;;;;;;;8.45;4.07;;;6.00;99.90;;;;;;4214975;28;20436;-86
2022/11/28 01:19:07;;;;;;;8.35;3.72;;;5.90;99.90;;;;;;4216197;28;20047;-86
2022/11/28 01:21:08;;;;;;;7.72;4.20;;;6.00;99.90;;;;;;4216247;28;20399;-87
2022/11/28 01:23:09;;;;;;;8.52;4.10;;;6.00;99.90;;;;;;4215107;28;20119;-87
2022/11/28 01:25:10;;;;;;;11.68;4.53;;;6.00;99.90;;;;;;4216098;28;20052;-87
2022/11/28 01:27:11;;;;;;;7.88;3.90;;;6.00;99.90;;;;;;4215115;28;20083;-86
2022/11/28 01:29:12;;;;;;;9.45;4.28;;;6.00;99.90;;;;;;4216186;28;20040;-86
2022/11/28 01:31:17;;;;;;;9.07;3.72;;;6.00;99.90;;;;;;4198218;28;20400;-86
2022/11/28 01:33:18;;;;;;;7.97;3.97;;;6.00;99.90;;;;;;4215948;28;20113;-86
2022/11/28 01:35:18;;;;;;;10.98;4.35;;;6.00;99.90;;;;;;4215522;28;20040;-86
2022/11/28 01:37:19;;;;;;;10.10;4.78;;;6.00;99.90;;;;;;4196943;28;20064;-86
2022/11/28 01:39:21;;;;;;;7.22;4.53;;;6.00;99.90;;;;;;4197945;28;20056;-87
2022/11/28 01:41:24;;;;;;;17.60;5.47;;;6.00;99.90;;;;;;4215888;28;20531;-87
2022/11/28 01:43:25;;;;;;;9.80;4.68;;;6.00;99.90;;;;;;4215567;28;20515;-87
2022/11/28 01:45:32;;;;;;;8.25;4.38;;;6.00;99.90;;;;;;4214637;28;20044;-87
2022/11/28 01:47:33;;;;;;;8.77;4.07;;;6.00;99.90;;;;;;4214677;28;20063;-87
2022/11/28 01:49:36;;;;;;;12.00;4.47;;;6.10;99.90;;;;;;4215995;28;20051;-86
2022/11/28 01:51:40;;;;;;;10.43;4.07;;;6.00;99.90;;;;;;4211265;28;20074;-86
2022/11/28 01:53:44;;;;;;;8.65;3.80;;;6.00;99.90;;;;;;4232741;28;20047;-86
2022/11/28 01:55:55;;;;;;;7.35;3.67;;;6.10;99.90;;;;;;4232391;28;20055;-87
2022/11/28 01:57:56;;;;;;;9.32;3.85;;;6.10;99.90;;;;;;4231665;28;20052;-86
2022/11/28 02:00:13;;;;;;;11.40;4.40;;;6.00;99.90;;;;;;4231561;28;20039;-86
2022/11/28 02:02:20;;;;;;;9.30;4.63;;;6.10;99.90;;;;;;4214637;28;20123;-87
2022/11/28 02:04:25;;;;;;;7.72;3.88;;;6.20;99.90;;;;;;4231691;28;20090;-87
2022/11/28 02:06:27;;;;;;;6.70;3.85;;;6.10;99.90;;;;;;4233162;28;20050;-86
2022/11/28 02:08:33;;;;;;;13.43;4.38;;;6.10;99.90;;;;;;4231062;28;20147;-87
2022/11/28 02:10:46;;;;;;;10.82;4.72;;;6.10;99.90;;;;;;4214763;28;20040;-86
2022/11/28 02:13:18;;;;;;;11.52;5.38;;;6.10;99.90;;;;;;4231092;28;20515;-86
2022/11/28 02:15:46;;;;;;;9.77;4.63;;;6.10;99.90;;;;;;4171061;28;20064;-87
2022/11/28 02:18:26;;;;;;;7.97;4.13;;;6.10;99.90;;;;;;4231400;28;20074;-87
2022/11/28 02:21:01;;;;;;;9.45;4.32;;;6.10;99.90;;;;;;4214393;28;20116;-86
2022/11/28 02:23:39;;;;;;;7.72;4.60;;;6.10;99.90;;;;;;4231182;28;20089;-87
2022/11/28 02:25:45;;;;;;;9.80;4.90;;;6.10;99.90;;;;;;4231066;28;20126;-86
2022/11/28 02:27:52;;;;;;;15.25;5.60;;;6.10;99.90;;;;;;4230696;28;20145;-87
2022/11/28 02:30:14;;;;;;;8.60;5.15;;;6.40;99.90;;;;;;4231792;28;20534;-86
2022/11/28 02:32:43;;;;;;;10.55;5.93;;;6.00;99.90;;;;;;4214066;28;20044;-86
2022/11/28 02:34:55;;;;;;;14.07;5.68;;;6.10;99.90;;;;;;4179397;28;20062;-86
2022/11/28 02:37:07;;;;;;;10.90;5.22;;;6.40;99.90;;;;;;4213952;28;20043;-86
2022/11/28 02:39:34;;;;;;;11.05;5.70;;;6.00;99.90;;;;;;4231319;28;20055;-86
2022/11/28 02:41:42;;;;;;;12.27;6.03;;;6.00;99.90;;;;;;4220860;28;20059;-86
2022/11/28 02:43:56;;;;;;;11.65;5.95;;;6.00;99.90;;;;;;4230578;28;20043;-87
2022/11/28 02:46:05;;;;;;;10.30;5.75;;;6.00;99.90;;;;;;4230659;28;20048;-86
2022/11/28 02:48:13;;;;;;;14.15;5.78;;;6.00;99.90;;;;;;4213768;28;20048;-87
2022/11/28 02:50:23;;;;;;;13.43;5.83;;;6.10;99.90;;;;;;4230665;28;20056;-86
2022/11/28 02:52:32;;;;;;;10.05;5.22;;;6.00;99.90;;;;;;4230362;28;20573;-86
2022/11/28 02:54:34;;;;;;;10.43;6.03;;;6.00;99.90;;;;;;4231197;28;20047;-87
2022/11/28 02:56:35;;;;;;;11.07;6.30;;;6.00;99.90;;;;;;4230591;28;20552;-86
2022/11/28 02:58:37;;;;;;;12.25;6.75;;;6.00;99.90;;;;;;4213967;28;20432;-86
2022/11/28 03:00:42;;;;;;;15.25;6.68;;;6.00;99.90;;;;;;4232202;28;20075;-86
2022/11/28 03:02:44;;;;;;;14.32;6.88;;;6.00;99.90;;;;;;4231829;28;20495;-86
2022/11/28 03:04:51;;;;;;;13.48;6.57;;;6.00;99.90;;;;;;4230149;28;20873;-86
2022/11/28 03:07:04;;;;;;;13.57;6.25;;;6.00;99.90;;;;;;4213561;28;20036;-86
2022/11/28 03:09:29;;;;;;;11.23;6.28;;;6.60;99.90;;;;;;4232567;28;20480;-86
2022/11/28 03:11:39;;;;;;;19.70;6.57;;;6.00;99.90;;;;;;4231832;28;20039;-86
2022/11/28 03:13:48;;;;;;;14.13;5.82;;;6.00;99.90;;;;;;4231926;28;20571;-86
2022/11/28 03:15:58;;;;;;;15.85;5.93;;;6.00;99.90;;;;;;4231766;28;20051;-86
2022/11/28 03:18:16;;;;;;;12.18;5.80;;;6.00;99.90;;;;;;4231985;28;20046;-86
2022/11/28 03:20:47;;;;;;;12.80;5.93;;;6.00;99.90;;;;;;4230239;28;20082;-86
2022/11/28 03:23:15;;;;;;;11.32;6.07;;;6.00;99.90;;;;;;4230724;28;20055;-86
2022/11/28 03:25:43;;;;;;;14.57;5.93;;;6.00;99.90;;;;;;4213618;28;20488;-86
2022/11/28 03:27:50;;;;;;;13.35;6.53;;;6.00;99.90;;;;;;4231582;28;20047;-85
2022/11/28 03:30:00;;;;;;;15.48;6.15;;;6.00;99.90;;;;;;4231583;28;20487;-86
2022/11/28 03:32:06;;;;;;;;;;;6.00;99.90;;;;;;4230343;28;20107;-86
2022/11/28 03:34:11;;;;;;;11.52;5.97;;;6.00;99.90;;;;;;4213306;28;19970;-86
2022/11/28 03:36:24;;;;;;;13.35;6.47;;;5.90;99.90;;;;;;4230545;28;20082;-86
2022/11/28 03:38:37;;;;;;;13.15;5.85;;;5.90;99.90;;;;;;4230685;28;20404;-86
2022/11/28 03:40:44;;;;;;;11.10;6.20;;;6.00;99.90;;;;;;4230596;28;20047;-86
2022/11/28 03:42:56;;;;;;;15.88;6.07;;;6.00;99.90;;;;;;4213048;28;20059;-86
2022/11/28 03:45:09;;;;;;;13.70;6.35;;;6.00;99.90;;;;;;4230171;28;20047;-86
2022/11/28 03:47:11;;;;;;;13.57;6.05;;;6.00;99.90;;;;;;4232263;28;20043;-86
2022/11/28 03:49:18;;;;;;;16.25;6.72;;;6.00;99.90;;;;;;4234350;28;20040;-86
2022/11/28 03:51:40;;;;;;;13.32;7.15;;;6.00;99.90;;;;;;4216482;28;20067;-86
2022/11/28 03:53:55;;;;;;;14.32;6.95;;;6.00;99.90;;;;;;4233256;28;20384;-86
2022/11/28 03:56:08;;;;;;;15.70;7.00;;;6.00;99.90;;;;;;4216587;28;20105;-86
2022/11/28 03:58:18;;;;;;;16.35;6.78;;;6.00;99.90;;;;;;4233152;28;20055;-86
2022/11/28 04:00:19;;;;;;;18.35;6.65;;;6.00;99.90;;;;;;4234881;28;20063;-86
2022/11/28 04:02:40;;;;;;;15.10;7.40;;;6.00;99.90;;;;;;4234611;28;20047;-86
2022/11/28 04:04:47;;;;;;;18.40;7.07;;;6.00;99.90;;;;;;4234597;28;20116;-86
2022/11/28 04:06:57;;;;;;;16.13;7.53;;;6.00;99.90;;;;;;4234253;28;20047;-86
2022/11/28 04:09:07;;;;;;;17.20;8.18;;;6.00;99.90;;;;;;4234203;28;20085;-87
2022/11/28 04:11:19;;;;;;;15.70;7.68;;;6.00;99.90;;;;;;4234263;28;20384;-86
2022/11/28 04:13:26;;;;;;;17.38;7.75;;;6.10;99.90;;;;;;4234530;28;20059;-86
2022/11/28 04:15:57;;;;;;;16.58;7.97;;;6.10;99.90;;;;;;4233847;28;20051;-85
2022/11/28 04:18:20;;;;;;;18.30;9.02;;;6.10;99.90;;;;;;4234649;28;20051;-86
2022/11/28 04:20:34;;;;;;;15.00;8.27;;;6.10;99.90;;;;;;4218009;28;20055;-86
2022/11/28 04:22:52;;;;;;;19.83;8.70;;;6.10;99.90;;;;;;4233663;28;20418;-86
2022/11/28 04:24:58;;;;;;;17.58;8.15;;;6.10;99.90;;;;;;4228399;28;20044;-86
2022/11/28 04:27:12;;;;;;;16.52;8.55;;;6.10;99.90;;;;;;4216158;28;20056;-86
2022/11/28 04:29:17;;;;;;;17.88;8.65;;;6.20;99.90;;;;;;4216032;28;20044;-86
2022/11/28 04:31:21;;;;;;;20.25;8.30;;;6.20;99.90;;;;;;4215699;28;20050;-86
2022/11/28 04:33:25;;;;;;;17.40;8.52;;;6.20;99.90;;;;;;4216093;28;20048;-86
2022/11/28 04:35:55;;;;;;;23.08;9.63;;;6.20;99.90;;;;;;4216075;28;20052;-86
2022/11/28 04:37:57;;;;;;;17.10;8.27;;;6.20;99.90;;;;;;4227663;28;20515;-86
2022/11/28 04:40:00;;;;;;;18.05;9.02;;;6.20;99.90;;;;;;4199837;28;20071;-86
2022/11/28 04:42:14;;;;;;;22.30;9.40;;;6.20;99.90;;;;;;4216242;28;20128;-86
2022/11/28 04:44:21;;;;;;;17.83;9.48;;;6.30;99.90;;;;;;4215798;28;20048;-87
2022/11/28 04:46:39;;;;;;;17.38;10.00;;;6.30;99.90;;;;;;4215084;28;20415;-86
2022/11/28 04:48:40;;;;;;;19.50;9.18;;;6.30;99.90;;;;;;4198940;28;20048;-86
2022/11/28 04:51:08;;;;;;;20.00;10.55;;;6.30;99.90;;;;;;4215771;28;20044;-86
2022/11/28 04:53:23;;;;;;;19.50;10.15;;;6.30;99.90;;;;;;4215928;28;20052;-86
2022/11/28 04:55:50;;;;;;;19.40;10.52;;;6.40;99.90;;;;;;4217208;28;20055;-85
2022/11/28 04:57:57;;;;;;;19.77;9.68;;;6.40;99.90;;;;;;4215125;28;20059;-86
2022/11/28 05:00:03;;;;;;;24.02;11.15;;;6.40;99.90;;;;;;4215469;28;20091;-86
2022/11/28 05:02:05;;;;;;;20.27;9.80;;;6.40;99.90;;;;;;4215343;28;20083;-86
2022/11/28 05:04:06;;;;;;;21.17;11.15;;;6.50;99.90;;;;;;4216803;28;20400;-86
2022/11/28 05:06:07;;;;;;;22.00;11.07;;;6.50;99.90;;;;;;4216598;28;20048;-85
2022/11/28 05:08:09;;;;;;;23.55;11.15;;;6.50;99.90;;;;;;4216711;28;20059;-85
2022/11/28 05:10:11;;;;;;;21.88;11.52;;;6.50;99.90;;;;;;4198757;28;20080;-85
2022/11/28 05:12:12;;;;;;;22.55;10.57;;;6.50;99.90;;;;;;4198827;28;20056;-85
2022/11/28 05:14:14;;;;;;;21.95;11.50;;;6.60;99.90;;;;;;4216355;28;20044;-86
2022/11/28 05:16:15;;;;;;;23.85;11.57;;;6.90;99.90;;;;;;4215166;28;20067;-86
2022/11/28 05:18:16;;;;;;;24.27;12.15;;;6.60;99.90;;;;;;4215291;28;20047;-87
2022/11/28 05:20:17;;;;;;;23.63;11.77;;;6.70;99.90;;;;;;4216246;28;20047;-87
2022/11/28 05:22:18;;;;;;;22.23;10.88;;;6.70;99.90;;;;;;4198120;28;20479;-86
2022/11/28 05:24:18;;;;;;;24.30;11.60;;;6.70;99.90;;;;;;4216481;28;20044;-86
2022/11/28 05:26:20;;;;;;;24.67;10.65;;;6.70;99.90;;;;;;4198372;28;20386;-86
2022/11/28 05:28:21;;;;;;;23.95;11.80;;;6.70;99.90;;;;;;4216540;28;20048;-86
2022/11/28 05:30:22;;;;;;;21.75;11.00;;;6.80;99.90;;;;;;4217022;28;20062;-87
2022/11/28 05:32:22;;;;;;;23.13;11.20;;;6.80;99.90;;;;;;4217121;28;20520;-86
2022/11/28 05:34:23;;;;;;;17.38;9.82;;;6.80;99.90;;;;;;4216476;28;20127;-86
2022/11/28 05:36:24;;;;;;;20.05;10.13;;;6.80;99.90;;;;;;4198533;28;20059;-86
2022/11/28 05:38:25;;;;;;;18.05;10.05;;;6.90;99.90;;;;;;4215383;28;20044;-87
2022/11/28 05:40:27;;;;;;;20.73;10.45;;;6.90;99.90;;;;;;4216109;28;20442;-85
2022/11/28 05:42:32;;;;;;;20.48;10.73;;;6.90;99.90;;;;;;4202857;28;20102;-85
2022/11/28 05:44:33;;;;;;;16.65;9.23;;;6.90;99.90;;;;;;4216065;28;20046;-86
2022/11/28 05:46:33;;;;;;;20.40;10.45;;;6.90;99.90;;;;;;4218145;28;20080;-85
2022/11/28 05:48:34;;;;;;;19.30;9.70;;;6.90;99.90;;;;;;4219672;28;20048;-86
2022/11/28 05:50:38;;;;;;;16.77;9.63;;;6.90;99.90;;;;;;4203204;28;20056;-85
2022/11/28 05:52:39;;;;;;;24.40;10.52;;;7.30;99.90;;;;;;4221331;28;20066;-86
2022/11/28 05:54:41;;;;;;;20.25;9.73;;;7.10;99.90;;;;;;4218983;28;20097;-87
2022/11/28 05:56:41;;;;;;;17.30;9.73;;;7.00;99.90;;;;;;4224139;28;20051;-87
2022/11/28 05:58:43;;;;;;;15.43;8.70;;;7.10;99.90;;;;;;4227769;28;20047;-86
2022/11/28 06:00:47;;;;;;;18.65;9.55;;;7.00;99.90;;;;;;4217913;28;20058;-87
2022/11/28 06:02:47;;;;;;;15.32;9.38;;;7.00;99.90;;;;;;4216107;28;20075;-87
2022/11/28 06:04:48;;;;;;;15.18;8.57;;;7.00;99.90;;;;;;4216025;28;20508;-87
2022/11/28 06:06:51;;;;;;;15.15;7.90;;;7.00;99.90;;;;;;4215858;28;20048;-86
2022/11/28 06:08:52;;;;;;;15.45;8.48;;;7.10;99.90;;;;;;4215566;28;20101;-86
2022/11/28 06:10:57;;;;;;;18.58;9.15;;;7.30;99.90;;;;;;4214065;28;20039;-87
2022/11/28 06:12:58;;;;;;;19.02;10.05;;;7.10;99.90;;;;;;4230859;28;20047;-87
2022/11/28 06:14:58;;;;;;;17.20;9.27;;;7.10;99.90;;;;;;4214375;28;20134;-87
2022/11/28 06:16:59;;;;;;;20.08;9.93;;;7.10;99.90;;;;;;4215090;28;20429;-87
2022/11/28 06:19:03;;;;;;;18.50;8.73;;;7.10;99.90;;;;;;4213899;28;20130;-86
2022/11/28 06:21:06;;;;;;;26.70;9.23;;;7.10;99.90;;;;;;4214944;28;20044;-86
2022/11/28 06:23:07;;;;;;;19.30;9.30;;;7.10;99.90;;;;;;4213689;28;20048;-87
2022/11/28 06:25:08;;;;;;;17.65;9.82;;;7.10;99.90;;;;;;4214215;28;20040;-86
2022/11/28 06:27:09;;;;;;;16.83;9.05;;;7.10;99.90;;;;;;4213821;28;20063;-87
2022/11/28 06:29:10;;;;;;;18.50;10.02;;;7.20;99.90;;;;;;4213891;28;20125;-87
2022/11/28 06:31:15;;;;;;;16.77;8.60;;;7.20;99.90;;;;;;4213855;28;20090;-87
2022/11/28 06:33:16;;;;;;;17.48;9.02;;;7.20;99.90;;;;;;4213784;28;20516;-87
2022/11/28 06:35:17;;;;;;;18.30;9.68;;;7.20;99.90;;;;;;4213603;28;20113;-87
2022/11/28 06:37:18;;;;;;;18.33;9.40;;;7.20;99.90;;;;;;4213598;28;20159;-87
2022/11/28 06:39:19;;;;;;;20.05;8.68;;;7.30;99.90;;;;;;4214805;28;20078;-87
2022/11/28 06:41:21;;;;;;;20.10;8.98;;;7.20;99.90;;;;;;4213687;28;20044;-86
2022/11/28 06:43:24;;;;;;;18.50;9.20;;;7.20;99.90;;;;;;4196651;28;20087;-86
2022/11/28 06:45:25;;;;;;;16.50;8.95;;;7.20;99.90;;;;;;4196885;28;20523;-86
2022/11/28 06:47:26;;;;;;;18.55;8.95;;;7.30;99.90;;;;;;4213544;28;20079;-87
2022/11/28 06:49:27;;;;;;;18.42;8.80;;;7.30;99.90;;;;;;4213547;28;20416;-87
2022/11/28 06:51:27;;;;;;;17.70;8.95;;;7.30;99.90;;;;;;4212982;28;20079;-86
2022/11/28 06:53:28;;;;;;;17.95;8.82;;;7.30;99.90;;;;;;4214752;28;20055;-86
2022/11/28 06:55:29;;;;;;;19.73;8.57;;;7.30;99.90;;;;;;4213742;28;20051;-86
2022/11/28 06:57:31;;;;;;;16.73;8.75;;;7.50;99.90;;;;;;4213531;28;20106;-86
2022/11/28 06:59:32;;;;;;;19.08;8.52;;;7.50;99.90;;;;;;4214607;28;20395;-86
2022/11/28 07:01:33;;;;;;;21.13;8.73;;;7.30;99.90;;;;;;4215526;28;20047;-84
2022/11/28 07:03:35;;;;;;;16.38;8.02;;;7.30;99.90;;;;;;4214118;28;20122;-86
2022/11/28 07:05:37;;;;;;;18.00;8.10;;;7.30;99.90;;;;;;4214258;28;20072;-85
2022/11/28 07:07:37;;;;;;;16.77;7.00;;;7.40;99.90;;;;;;4217999;28;20052;-85
2022/11/28 07:09:38;;;;;;;18.05;8.20;;;7.40;99.90;;;;;;4219924;28;20099;-85
2022/11/28 07:11:41;;;;;;;16.27;7.70;;;7.40;99.90;;;;;;4230988;28;20134;-85
2022/11/28 07:13:44;;;;;;;14.88;7.15;;;7.40;99.90;;;;;;4229171;28;20089;-85
2022/11/28 07:15:49;;;;;;;15.80;8.27;;;7.40;99.90;;;;;;4229613;28;20059;-85
2022/11/28 07:17:50;;;;;;;19.50;7.78;;;7.40;99.90;;;;;;4230889;28;20052;-85
2022/11/28 07:19:51;;;;;;;15.05;7.13;;;7.40;99.90;;;;;;4213176;28;20474;-86
2022/11/28 07:21:54;;;;;;;11.75;5.95;;;7.40;99.90;;;;;;4231789;28;20073;-85
2022/11/28 07:23:56;;;;;;;14.77;8.02;;;7.40;99.90;;;;;;4233210;28;20057;-85
2022/11/28 07:26:00;;;;;;;13.77;7.18;;;7.40;99.90;;;;;;4227653;28;20047;-85
2022/11/28 07:28:01;;;;;;;12.95;7.07;;;7.40;99.90;;;;;;4215392;28;20561;-84
2022/11/28 07:30:01;;;;;;;15.57;7.05;;;7.40;99.90;;;;;;4217339;28;20093;-85
2022/11/28 07:32:04;;;;;;;12.77;6.88;;;7.40;99.90;;;;;;4215261;28;20449;-84
2022/11/28 07:34:05;;;;;;;14.05;6.95;;;7.40;99.90;;;;;;4221334;28;20515;-84
2022/11/28 07:36:10;;;;;;;12.10;6.97;;;7.40;99.90;;;;;;4224937;28;20102;-85
2022/11/28 07:38:11;;;;;;;13.50;6.57;;;7.40;99.90;;;;;;4215895;28;20545;-85
2022/11/28 07:40:12;;;;;;;13.45;7.15;;;7.40;99.90;;;;;;4215299;28;20044;-85
2022/11/28 07:42:13;;;;;;;15.43;6.75;;;7.40;99.90;;;;;;4217270;28;20039;-86
2022/11/28 07:44:16;;;;;;;11.80;6.65;;;7.70;99.90;;;;;;4215711;28;20476;-84
2022/11/28 07:46:19;;;;;;;13.95;7.13;;;7.40;99.90;;;;;;4216990;28;20105;-85
2022/11/28 07:48:20;;;;;;;14.23;6.32;;;7.40;99.90;;;;;;4217347;28;20032;-84
2022/11/28 07:50:21;;;;;;;11.65;6.32;;;7.40;99.90;;;;;;4222080;28;20051;-86
2022/11/28 07:52:22;;;;;;;11.77;6.43;;;7.40;99.90;;;;;;4233801;28;20108;-86
2022/11/28 07:54:23;;;;;;;12.27;6.45;;;7.40;99.90;;;;;;4215550;28;20575;-85
2022/11/28 07:56:27;;;;;;;13.95;7.18;;;7.40;99.90;;;;;;4233667;28;20101;-86
2022/11/28 07:58:28;;;;;;;12.77;6.78;;;7.60;99.90;;;;;;4215688;28;20047;-86
2022/11/28 08:00:31;;;;;;;13.45;7.00;;;7.40;99.90;;;;;;4233770;28;20078;-86
2022/11/28 08:02:33;;;;;;;12.13;6.10;;;7.40;99.90;;;;;;4233214;28;20032;-86
2022/11/28 08:04:35;;;;;;;11.15;6.40;;;7.40;99.90;;;;;;4233517;28;20040;-85
2022/11/28 08:06:40;;;;;;;11.23;7.82;;;7.40;99.90;;;;;;4215806;28;20159;-86
2022/11/28 08:08:42;;;;;;;9.60;5.88;;;7.40;99.90;;;;;;4233718;28;20044;-86
2022/11/28 08:10:44;;;;;;;11.48;6.30;;;7.50;99.90;;;;;;4215278;28;20051;-86
2022/11/28 08:12:46;;;;;;;12.52;6.53;;;7.40;99.90;;;;;;4233824;28;20538;-85
2022/11/28 08:14:47;;;;;;;10.15;6.00;;;7.50;99.90;;;;;;4215339;28;20059;-85
2022/11/28 08:16:48;;;;;;;11.18;6.38;;;7.40;99.90;;;;;;4215700;28;20058;-86
2022/11/28 08:18:50;;;;;;;11.05;6.65;;;7.50;99.90;;;;;;4233484;28;20411;-85
2022/11/28 08:21:01;;;;;;;13.23;6.82;;;7.50;99.90;;;;;;4232991;28;20056;-85
2022/11/28 08:23:01;;;;;;;12.95;6.22;;;7.50;99.90;;;;;;4215515;28;20048;-86
2022/11/28 08:25:02;;;;;;;11.43;6.38;;;7.50;99.90;;;;;;4215180;28;20130;-85
2022/11/28 08:27:05;;;;;;;11.00;6.28;;;7.50;99.90;;;;;;4215063;28;20086;-85
2022/11/28 08:29:05;;;;;;;11.65;6.35;;;7.50;99.90;;;;;;4233264;28;20051;-86
2022/11/28 08:31:16;;;;;;;11.85;6.20;;;7.50;99.90;;;;;;4232867;28;20039;-85
2022/11/28 08:33:17;;;;;;;12.93;6.32;;;7.50;99.90;;;;;;4232489;28;20039;-85
2022/11/28 08:35:18;;;;;;;11.07;6.07;;;7.50;99.90;;;;;;4218351;28;20376;-85
2022/11/28 08:37:19;;;;;;;12.55;6.38;;;7.50;99.90;;;;;;4232025;28;20078;-85
2022/11/28 08:39:22;;;;;;;11.60;6.70;;;7.50;99.90;;;;;;4249909;27;20039;-85
2022/11/28 08:41:23;;;;;;;15.32;6.65;;;7.50;99.90;;;;;;4249331;27;20122;-85
2022/11/28 08:43:24;;;;;;;13.43;7.20;;;7.50;99.90;;;;;;4247989;27;20050;-85
2022/11/28 08:45:26;;;;;;;12.40;6.03;;;7.50;99.90;;;;;;4238231;27;20482;-85
2022/11/28 08:47:27;;;;;;;14.25;6.18;;;7.50;99.90;;;;;;4231175;28;20043;-84
2022/11/28 08:49:28;;;;;;;10.95;6.10;;;7.50;99.90;;;;;;4243954;27;20123;-84
2022/11/28 08:51:29;;;;;;;12.88;7.00;;;7.50;99.90;;;;;;4213865;28;20075;-86
2022/11/28 08:53:30;;;;;;;14.18;6.38;;;7.50;99.90;;;;;;4232667;28;20035;-84
2022/11/28 08:55:31;;;;;;;14.13;8.15;;;7.50;99.90;;;;;;4232579;28;20070;-85
2022/11/28 08:57:32;;;;;;;10.82;6.35;;;7.50;99.90;;;;;;4232104;28;20039;-85
2022/11/28 08:59:34;;;;;;;13.80;5.80;;;7.60;99.90;;;;;;4232503;28;20124;-85
2022/11/28 09:01:34;;;;;;;11.38;6.00;;;7.60;99.90;;;;;;4240551;27;20400;-85
2022/11/28 09:03:35;;;;;;;13.43;6.18;;;7.60;99.90;;;;;;4235871;27;20043;-85
2022/11/28 09:05:36;;;;;;;12.80;5.70;;;7.60;99.90;;;;;;4243703;27;20388;-84
2022/11/28 09:07:37;;;;;;;9.73;5.40;;;7.50;99.90;;;;;;4214108;28;20527;-85
2022/11/28 09:09:37;;;;;;;9.20;5.50;;;7.60;99.90;;;;;;4218970;28;20485;-85
2022/11/28 09:11:38;;;;;;;12.65;6.03;;;7.60;99.90;;;;;;4230960;28;20075;-86
2022/11/28 09:13:39;;;;;;;11.02;5.38;;;7.60;99.90;;;;;;4249009;27;20078;-85
2022/11/28 09:15:41;;;;;;;9.00;4.90;;;7.60;99.90;;;;;;4231100;28;20055;-86
2022/11/28 09:17:42;;;;;;;10.07;5.28;;;7.60;99.90;;;;;;4246647;27;20051;-85
2022/11/28 09:19:43;;;;;;;8.02;3.97;;;7.60;99.90;;;;;;4227285;28;20101;-85
2022/11/28 09:21:44;;;;;;;7.60;4.95;;;7.60;99.90;;;;;;4230784;28;20076;-85
2022/11/28 09:23:45;;;;;;;8.05;4.30;;;7.60;99.90;;;;;;4230816;28;20619;-85
2022/11/28 09:25:45;;;;;;;9.85;4.80;;;7.60;99.90;;;;;;4248672;27;20035;-85
2022/11/28 09:27:48;;;;;;;8.73;4.78;;;7.60;99.90;;;;;;4213833;28;20052;-85
2022/11/28 09:29:49;;;;;;;7.88;4.15;;;7.60;99.90;;;;;;4213553;28;20044;-85
2022/11/28 09:31:50;;;;;;;7.88;4.25;;;7.70;99.90;;;;;;4248896;27;20044;-85
2022/11/28 09:33:51;;;;;;;7.78;4.60;;;7.60;99.90;;;;;;4231656;28;20185;-85
2022/11/28 09:35:54;;;;;;;8.15;4.00;;;7.60;99.90;;;;;;4243610;27;20444;-85
2022/11/28 09:37:56;;;;;;;7.45;3.95;;;7.10;99.90;;;;;;4224009;28;20051;-85
2022/11/28 09:39:57;;;;;;;7.78;4.57;;;7.70;99.90;;;;;;4231084;28;20043;-85
2022/11/28 09:42:25;;;;;;;7.03;3.72;;;7.70;99.90;;;;;;4222044;28;20075;-84
2022/11/28 09:44:29;;;;;;;6.37;4.00;;;7.70;99.90;;;;;;4232435;28;20415;-85
2022/11/28 09:46:34;;;;;;;7.30;4.53;;;7.70;99.90;;;;;;4215165;28;20044;-84
2022/11/28 09:48:45;;;;;;;8.45;3.95;;;7.70;99.90;;;;;;4214171;28;20186;-85
2022/11/28 09:50:46;;;;;;;7.60;4.15;;;7.70;99.90;;;;;;4231977;28;20059;-85
2022/11/28 09:53:14;;;;;;;5.72;3.88;;;7.70;99.90;;;;;;4214021;28;20056;-85
2022/11/28 09:55:53;;;;;;;5.35;3.47;;;7.70;99.90;;;;;;4248045;27;20031;-85
2022/11/28 09:57:54;;;;;;;6.15;3.00;;;7.80;99.90;;;;;;4192333;27;20051;-84
2022/11/28 09:59:55;;;;;;;6.47;3.75;;;7.70;99.90;;;;;;4230811;28;20043;-84
2022/11/28 10:02:23;;;;;;;7.78;3.80;;;7.80;99.90;;;;;;4231196;28;20484;-85
2022/11/28 10:04:47;;;;;;;5.72;3.58;;;7.80;99.90;;;;;;4231475;28;20407;-85
2022/11/28 10:06:55;;;;;;;7.55;3.65;;;7.80;99.90;;;;;;4230913;28;20070;-85
2022/11/28 10:09:04;;;;;;;5.13;3.28;;;7.80;99.90;;;;;;4249428;27;20548;-85
2022/11/28 10:11:26;;;;;;;6.32;3.28;;;7.80;99.90;;;;;;4230984;28;20039;-85
2022/11/28 10:13:41;;;;;;;5.95;3.50;;;7.80;99.90;;;;;;4162973;28;20044;-85
2022/11/28 10:16:09;;;;;;;6.32;3.38;;;7.80;99.90;;;;;;4249248;27;20446;-86
2022/11/28 10:18:37;;;;;;;5.90;3.63;;;7.80;99.90;;;;;;4249529;27;20039;-85
2022/11/28 10:20:42;;;;;;;4.68;2.55;;;7.80;99.90;;;;;;4249301;27;20483;-85
2022/11/28 10:22:56;;;;;;;7.28;3.53;;;7.80;99.90;;;;;;4249131;27;20039;-85
2022/11/28 10:25:02;;;;;;;7.20;3.58;;;7.80;99.90;;;;;;4231001;28;20104;-85
2022/11/28 10:27:04;;;;;;;7.22;4.13;;;7.80;99.90;;;;;;4249194;27;20074;-85
2022/11/28 10:29:37;;;;;;;4.93;3.10;;;7.80;99.90;;;;;;4249920;27;20123;-85
2022/11/28 10:31:41;;;;;;;5.07;2.88;;;7.80;99.90;;;;;;4232848;28;20055;-85
2022/11/28 10:33:51;;;;;;;5.47;3.15;;;7.80;99.90;;;;;;4214712;28;20044;-85
2022/11/28 10:35:59;;;;;;;6.80;3.05;;;7.90;99.90;;;;;;4232283;28;20048;-85
2022/11/28 10:38:01;;;;;;;4.97;2.90;;;7.90;99.90;;;;;;4232529;28;20039;-86
2022/11/28 10:40:15;;;;;;;5.18;2.88;;;7.90;99.90;;;;;;4232230;28;20475;-85
2022/11/28 10:42:31;;;;;;;6.32;3.08;;;7.90;99.90;;;;;;4232433;28;20036;-86
2022/11/28 10:44:38;;;;;;;6.20;3.13;;;7.90;99.90;;;;;;4232982;28;20506;-85
2022/11/28 10:46:41;;;;;;;5.47;3.60;;;7.90;99.90;;;;;;4232533;28;20508;-86
2022/11/28 10:49:02;;;;;;;5.35;3.10;;;7.90;99.90;;;;;;4232036;28;20044;-85
2022/11/28 10:51:15;;;;;;;4.45;2.83;;;7.90;99.90;;;;;;4231358;28;20047;-86
2022/11/28 10:53:50;;;;;;;4.68;2.72;;;8.00;99.90;;;;;;4232025;28;20043;-86
2022/11/28 10:56:00;;;;;;;4.45;2.70;;;8.00;99.90;;;;;;4211818;28;20097;-85
2022/11/28 10:58:23;;;;;;;5.30;3.30;;;8.00;99.90;;;;;;4234318;28;20039;-85
2022/11/28 11:00:24;;;;;;;6.80;3.20;;;8.00;99.90;;;;;;4239107;28;20070;-85